sensor_id;sensor_type;location;lat;lon;timestamp;P1;durP1;ratioP1;P2;durP2;ratioP2
45620;SDS011;31345;51.522;10.702;2024-02-28T00:00:20;27.20;;;15.80;;
45620;SDS011;31345;51.522;10.702;2024-02-28T00:02:53;27.10;;;15.30;;
45620;SDS011;31345;51.522;10.702;2024-02-28T00:05:26;25.60;;;14.60;;
45620;SDS011;31345;51.522;10.702;2024-02-28T00:07:54;25.17;;;14.80;;
45620;SDS011;31345;51.522;10.702;2024-02-28T00:10:27;32.17;;;17.03;;
45620;SDS011;31345;51.522;10.702;2024-02-28T00:12:55;31.30;;;16.93;;
45620;SDS011;31345;51.522;10.702;2024-02-28T00:15:23;31.67;;;17.07;;
45620;SDS011;31345;51.522;10.702;2024-02-28T00:17:55;28.50;;;16.70;;
45620;SDS011;31345;51.522;10.702;2024-02-28T00:20:28;26.57;;;15.00;;
45620;SDS011;31345;51.522;10.702;2024-02-28T00:22:56;34.33;;;18.17;;
45620;SDS011;31345;51.522;10.702;2024-02-28T00:25:23;36.23;;;18.27;;
45620;SDS011;31345;51.522;10.702;2024-02-28T00:27:52;30.13;;;17.40;;
45620;SDS011;31345;51.522;10.702;2024-02-28T00:30:25;34.90;;;18.03;;
45620;SDS011;31345;51.522;10.702;2024-02-28T00:32:59;29.63;;;18.47;;
45620;SDS011;31345;51.522;10.702;2024-02-28T00:35:27;33.87;;;18.63;;
45620;SDS011;31345;51.522;10.702;2024-02-28T00:38:01;35.60;;;17.70;;
45620;SDS011;31345;51.522;10.702;2024-02-28T00:40:29;37.43;;;18.50;;
45620;SDS011;31345;51.522;10.702;2024-02-28T00:43:03;33.00;;;18.73;;
45620;SDS011;31345;51.522;10.702;2024-02-28T00:45:36;33.83;;;18.60;;
45620;SDS011;31345;51.522;10.702;2024-02-28T00:48:04;30.37;;;18.37;;
45620;SDS011;31345;51.522;10.702;2024-02-28T00:50:32;32.90;;;18.47;;
45620;SDS011;31345;51.522;10.702;2024-02-28T00:53:04;34.77;;;18.37;;
45620;SDS011;31345;51.522;10.702;2024-02-28T00:55:32;34.77;;;17.83;;
45620;SDS011;31345;51.522;10.702;2024-02-28T00:58:06;29.13;;;17.20;;
45620;SDS011;31345;51.522;10.702;2024-02-28T01:00:34;31.57;;;17.77;;
45620;SDS011;31345;51.522;10.702;2024-02-28T01:03:07;33.07;;;18.73;;
45620;SDS011;31345;51.522;10.702;2024-02-28T01:05:42;30.47;;;16.97;;
45620;SDS011;31345;51.522;10.702;2024-02-28T01:08:14;33.30;;;17.57;;
45620;SDS011;31345;51.522;10.702;2024-02-28T01:10:48;32.53;;;17.83;;
45620;SDS011;31345;51.522;10.702;2024-02-28T01:13:22;29.83;;;16.43;;
45620;SDS011;31345;51.522;10.702;2024-02-28T01:15:50;34.20;;;18.33;;
45620;SDS011;31345;51.522;10.702;2024-02-28T01:18:18;32.23;;;17.43;;
45620;SDS011;31345;51.522;10.702;2024-02-28T01:20:50;32.37;;;18.60;;
45620;SDS011;31345;51.522;10.702;2024-02-28T01:23:24;33.37;;;16.70;;
45620;SDS011;31345;51.522;10.702;2024-02-28T01:25:52;32.50;;;18.03;;
45620;SDS011;31345;51.522;10.702;2024-02-28T01:28:19;33.37;;;17.63;;
45620;SDS011;31345;51.522;10.702;2024-02-28T01:30:53;33.33;;;17.23;;
45620;SDS011;31345;51.522;10.702;2024-02-28T01:33:26;33.83;;;17.67;;
45620;SDS011;31345;51.522;10.702;2024-02-28T01:35:54;31.03;;;17.03;;
45620;SDS011;31345;51.522;10.702;2024-02-28T01:38:22;30.13;;;16.53;;
45620;SDS011;31345;51.522;10.702;2024-02-28T01:40:54;31.87;;;18.23;;
45620;SDS011;31345;51.522;10.702;2024-02-28T01:43:22;33.23;;;18.50;;
45620;SDS011;31345;51.522;10.702;2024-02-28T01:45:56;29.97;;;17.03;;
45620;SDS011;31345;51.522;10.702;2024-02-28T01:48:27;29.57;;;17.17;;
45620;SDS011;31345;51.522;10.702;2024-02-28T01:50:59;32.50;;;18.73;;
45620;SDS011;31345;51.522;10.702;2024-02-28T01:53:27;33.13;;;17.37;;
45620;SDS011;31345;51.522;10.702;2024-02-28T01:55:54;34.13;;;18.40;;
45620;SDS011;31345;51.522;10.702;2024-02-28T01:58:27;36.53;;;19.50;;
45620;SDS011;31345;51.522;10.702;2024-02-28T02:00:57;35.40;;;19.27;;
45620;SDS011;31345;51.522;10.702;2024-02-28T02:03:26;33.17;;;18.45;;
45620;SDS011;31345;51.522;10.702;2024-02-28T02:05:58;33.40;;;18.97;;
45620;SDS011;31345;51.522;10.702;2024-02-28T02:08:26;32.37;;;19.13;;
45620;SDS011;31345;51.522;10.702;2024-02-28T02:10:53;34.07;;;19.63;;
45620;SDS011;31345;51.522;10.702;2024-02-28T02:13:26;34.93;;;19.83;;
45620;SDS011;31345;51.522;10.702;2024-02-28T02:16:00;31.70;;;18.77;;
45620;SDS011;31345;51.522;10.702;2024-02-28T02:18:33;35.63;;;20.00;;
45620;SDS011;31345;51.522;10.702;2024-02-28T02:21:05;36.37;;;19.43;;
45620;SDS011;31345;51.522;10.702;2024-02-28T02:23:36;33.67;;;19.17;;
45620;SDS011;31345;51.522;10.702;2024-02-28T02:26:12;33.53;;;18.73;;
45620;SDS011;31345;51.522;10.702;2024-02-28T02:28:40;35.63;;;19.17;;
45620;SDS011;31345;51.522;10.702;2024-02-28T02:31:13;34.33;;;19.57;;
45620;SDS011;31345;51.522;10.702;2024-02-28T02:33:45;33.10;;;17.63;;
45620;SDS011;31345;51.522;10.702;2024-02-28T02:36:13;35.63;;;19.23;;
45620;SDS011;31345;51.522;10.702;2024-02-28T02:38:47;29.13;;;16.87;;
45620;SDS011;31345;51.522;10.702;2024-02-28T02:41:15;29.70;;;18.37;;
45620;SDS011;31345;51.522;10.702;2024-02-28T02:43:47;31.73;;;17.90;;
45620;SDS011;31345;51.522;10.702;2024-02-28T02:46:15;31.83;;;18.33;;
45620;SDS011;31345;51.522;10.702;2024-02-28T02:48:47;35.90;;;18.73;;
45620;SDS011;31345;51.522;10.702;2024-02-28T02:51:15;33.33;;;18.30;;
45620;SDS011;31345;51.522;10.702;2024-02-28T02:53:44;31.90;;;18.43;;
45620;SDS011;31345;51.522;10.702;2024-02-28T02:56:13;37.13;;;19.97;;
45620;SDS011;31345;51.522;10.702;2024-02-28T02:58:41;33.10;;;19.37;;
45620;SDS011;31345;51.522;10.702;2024-02-28T03:01:08;33.37;;;17.30;;
45620;SDS011;31345;51.522;10.702;2024-02-28T03:03:41;33.37;;;19.03;;
45620;SDS011;31345;51.522;10.702;2024-02-28T03:06:09;33.60;;;18.53;;
45620;SDS011;31345;51.522;10.702;2024-02-28T03:08:36;35.67;;;18.90;;
45620;SDS011;31345;51.522;10.702;2024-02-28T03:11:09;33.37;;;19.87;;
45620;SDS011;31345;51.522;10.702;2024-02-28T03:13:43;36.83;;;19.93;;
45620;SDS011;31345;51.522;10.702;2024-02-28T03:16:16;37.07;;;19.80;;
45620;SDS011;31345;51.522;10.702;2024-02-28T03:18:49;38.03;;;20.83;;
45620;SDS011;31345;51.522;10.702;2024-02-28T03:21:16;36.67;;;19.17;;
45620;SDS011;31345;51.522;10.702;2024-02-28T03:23:44;33.97;;;19.73;;
45620;SDS011;31345;51.522;10.702;2024-02-28T03:26:12;37.50;;;20.87;;
45620;SDS011;31345;51.522;10.702;2024-02-28T03:28:46;44.47;;;24.03;;
45620;SDS011;31345;51.522;10.702;2024-02-28T03:31:13;43.27;;;22.00;;
45620;SDS011;31345;51.522;10.702;2024-02-28T03:33:46;42.03;;;22.40;;
45620;SDS011;31345;51.522;10.702;2024-02-28T03:36:18;37.73;;;20.83;;
45620;SDS011;31345;51.522;10.702;2024-02-28T03:38:46;40.23;;;21.20;;
45620;SDS011;31345;51.522;10.702;2024-02-28T03:41:19;37.90;;;20.23;;
45620;SDS011;31345;51.522;10.702;2024-02-28T03:43:53;44.73;;;22.57;;
45620;SDS011;31345;51.522;10.702;2024-02-28T03:46:25;42.13;;;23.27;;
45620;SDS011;31345;51.522;10.702;2024-02-28T03:48:53;40.30;;;23.60;;
45620;SDS011;31345;51.522;10.702;2024-02-28T03:51:20;41.93;;;23.40;;
45620;SDS011;31345;51.522;10.702;2024-02-28T03:53:53;44.47;;;23.27;;
45620;SDS011;31345;51.522;10.702;2024-02-28T03:56:21;42.07;;;21.50;;
45620;SDS011;31345;51.522;10.702;2024-02-28T03:58:50;41.30;;;21.73;;
45620;SDS011;31345;51.522;10.702;2024-02-28T04:01:20;41.53;;;21.83;;
45620;SDS011;31345;51.522;10.702;2024-02-28T04:03:52;39.40;;;20.87;;
45620;SDS011;31345;51.522;10.702;2024-02-28T04:06:20;39.17;;;21.60;;
45620;SDS011;31345;51.522;10.702;2024-02-28T04:08:48;37.90;;;20.47;;
45620;SDS011;31345;51.522;10.702;2024-02-28T04:11:20;34.00;;;19.50;;
45620;SDS011;31345;51.522;10.702;2024-02-28T04:13:54;37.90;;;20.83;;
45620;SDS011;31345;51.522;10.702;2024-02-28T04:16:22;39.50;;;21.53;;
45620;SDS011;31345;51.522;10.702;2024-02-28T04:18:49;38.07;;;21.73;;
45620;SDS011;31345;51.522;10.702;2024-02-28T04:21:17;42.97;;;21.67;;
45620;SDS011;31345;51.522;10.702;2024-02-28T04:23:50;39.67;;;21.53;;
45620;SDS011;31345;51.522;10.702;2024-02-28T04:26:18;38.77;;;21.17;;
45620;SDS011;31345;51.522;10.702;2024-02-28T04:28:50;41.03;;;20.80;;
45620;SDS011;31345;51.522;10.702;2024-02-28T04:31:24;39.13;;;21.70;;
45620;SDS011;31345;51.522;10.702;2024-02-28T04:33:52;42.83;;;22.07;;
45620;SDS011;31345;51.522;10.702;2024-02-28T04:36:24;43.37;;;22.43;;
45620;SDS011;31345;51.522;10.702;2024-02-28T04:38:57;43.73;;;22.70;;
45620;SDS011;31345;51.522;10.702;2024-02-28T04:41:25;37.37;;;21.73;;
45620;SDS011;31345;51.522;10.702;2024-02-28T04:43:57;45.33;;;23.90;;
45620;SDS011;31345;51.522;10.702;2024-02-28T04:46:31;43.50;;;23.30;;
45620;SDS011;31345;51.522;10.702;2024-02-28T04:49:00;40.70;;;20.77;;
45620;SDS011;31345;51.522;10.702;2024-02-28T04:51:27;41.87;;;21.67;;
45620;SDS011;31345;51.522;10.702;2024-02-28T04:53:55;41.60;;;22.27;;
45620;SDS011;31345;51.522;10.702;2024-02-28T04:56:27;38.87;;;20.27;;
45620;SDS011;31345;51.522;10.702;2024-02-28T04:58:55;39.97;;;20.57;;
45620;SDS011;31345;51.522;10.702;2024-02-28T05:01:28;40.73;;;22.07;;
45620;SDS011;31345;51.522;10.702;2024-02-28T05:03:57;42.70;;;22.03;;
45620;SDS011;31345;51.522;10.702;2024-02-28T05:06:24;42.60;;;21.10;;
45620;SDS011;31345;51.522;10.702;2024-02-28T05:08:57;44.10;;;22.37;;
45620;SDS011;31345;51.522;10.702;2024-02-28T05:11:25;44.73;;;21.90;;
45620;SDS011;31345;51.522;10.702;2024-02-28T05:13:57;42.60;;;20.87;;
45620;SDS011;31345;51.522;10.702;2024-02-28T05:16:25;42.90;;;21.00;;
45620;SDS011;31345;51.522;10.702;2024-02-28T05:18:59;39.67;;;20.33;;
45620;SDS011;31345;51.522;10.702;2024-02-28T05:21:32;41.23;;;21.70;;
45620;SDS011;31345;51.522;10.702;2024-02-28T05:24:11;46.43;;;23.67;;
45620;SDS011;31345;51.522;10.702;2024-02-28T05:26:44;41.43;;;21.07;;
45620;SDS011;31345;51.522;10.702;2024-02-28T05:29:16;42.00;;;21.40;;
45620;SDS011;31345;51.522;10.702;2024-02-28T05:31:44;41.87;;;21.17;;
45620;SDS011;31345;51.522;10.702;2024-02-28T05:34:18;40.13;;;21.43;;
45620;SDS011;31345;51.522;10.702;2024-02-28T05:36:51;45.53;;;24.40;;
45620;SDS011;31345;51.522;10.702;2024-02-28T05:39:18;44.17;;;22.93;;
45620;SDS011;31345;51.522;10.702;2024-02-28T05:41:51;47.10;;;23.00;;
45620;SDS011;31345;51.522;10.702;2024-02-28T05:44:24;45.90;;;22.07;;
45620;SDS011;31345;51.522;10.702;2024-02-28T05:46:57;48.63;;;24.17;;
45620;SDS011;31345;51.522;10.702;2024-02-28T05:49:30;44.37;;;23.37;;
45620;SDS011;31345;51.522;10.702;2024-02-28T05:51:58;44.80;;;22.73;;
45620;SDS011;31345;51.522;10.702;2024-02-28T05:54:31;44.67;;;21.90;;
45620;SDS011;31345;51.522;10.702;2024-02-28T05:57:05;43.67;;;22.23;;
45620;SDS011;31345;51.522;10.702;2024-02-28T05:59:32;41.50;;;21.90;;
45620;SDS011;31345;51.522;10.702;2024-02-28T06:02:00;42.57;;;22.70;;
45620;SDS011;31345;51.522;10.702;2024-02-28T06:04:27;44.67;;;22.23;;
45620;SDS011;31345;51.522;10.702;2024-02-28T06:06:56;44.43;;;22.77;;
45620;SDS011;31345;51.522;10.702;2024-02-28T06:09:29;40.50;;;21.27;;
45620;SDS011;31345;51.522;10.702;2024-02-28T06:12:02;41.93;;;22.00;;
45620;SDS011;31345;51.522;10.702;2024-02-28T06:14:29;41.90;;;20.30;;
45620;SDS011;31345;51.522;10.702;2024-02-28T06:16:57;40.83;;;21.10;;
45620;SDS011;31345;51.522;10.702;2024-02-28T06:19:30;46.40;;;22.37;;
45620;SDS011;31345;51.522;10.702;2024-02-28T06:21:59;45.10;;;22.60;;
45620;SDS011;31345;51.522;10.702;2024-02-28T06:24:33;43.50;;;21.37;;
45620;SDS011;31345;51.522;10.702;2024-02-28T06:27:06;43.07;;;21.27;;
45620;SDS011;31345;51.522;10.702;2024-02-28T06:29:43;49.53;;;24.83;;
45620;SDS011;31345;51.522;10.702;2024-02-28T06:32:15;43.90;;;21.63;;
45620;SDS011;31345;51.522;10.702;2024-02-28T06:34:43;45.03;;;22.50;;
45620;SDS011;31345;51.522;10.702;2024-02-28T06:37:17;46.83;;;23.03;;
45620;SDS011;31345;51.522;10.702;2024-02-28T06:39:45;46.57;;;23.13;;
45620;SDS011;31345;51.522;10.702;2024-02-28T06:42:12;43.60;;;21.13;;
45620;SDS011;31345;51.522;10.702;2024-02-28T06:44:40;43.33;;;20.87;;
45620;SDS011;31345;51.522;10.702;2024-02-28T06:47:07;42.80;;;21.70;;
45620;SDS011;31345;51.522;10.702;2024-02-28T06:49:40;43.63;;;22.60;;
45620;SDS011;31345;51.522;10.702;2024-02-28T06:52:13;43.23;;;23.00;;
45620;SDS011;31345;51.522;10.702;2024-02-28T06:54:42;48.07;;;22.17;;
45620;SDS011;31345;51.522;10.702;2024-02-28T06:57:10;43.90;;;22.40;;
45620;SDS011;31345;51.522;10.702;2024-02-28T06:59:43;44.13;;;22.67;;
45620;SDS011;31345;51.522;10.702;2024-02-28T07:02:11;49.00;;;23.60;;
45620;SDS011;31345;51.522;10.702;2024-02-28T07:04:44;42.63;;;22.33;;
45620;SDS011;31345;51.522;10.702;2024-02-28T07:07:16;46.57;;;22.43;;
45620;SDS011;31345;51.522;10.702;2024-02-28T07:09:50;48.13;;;22.27;;
45620;SDS011;31345;51.522;10.702;2024-02-28T07:12:18;44.20;;;21.83;;
45620;SDS011;31345;51.522;10.702;2024-02-28T07:14:50;47.53;;;23.27;;
45620;SDS011;31345;51.522;10.702;2024-02-28T07:17:18;41.07;;;21.10;;
45620;SDS011;31345;51.522;10.702;2024-02-28T07:19:51;44.40;;;21.47;;
45620;SDS011;31345;51.522;10.702;2024-02-28T07:22:18;43.40;;;22.43;;
45620;SDS011;31345;51.522;10.702;2024-02-28T07:24:47;44.50;;;22.27;;
45620;SDS011;31345;51.522;10.702;2024-02-28T07:27:16;42.53;;;21.63;;
45620;SDS011;31345;51.522;10.702;2024-02-28T07:29:43;40.87;;;20.47;;
45620;SDS011;31345;51.522;10.702;2024-02-28T07:32:11;42.43;;;21.03;;
45620;SDS011;31345;51.522;10.702;2024-02-28T07:34:38;43.73;;;20.57;;
45620;SDS011;31345;51.522;10.702;2024-02-28T07:37:06;41.20;;;21.97;;
45620;SDS011;31345;51.522;10.702;2024-02-28T07:39:39;36.87;;;20.30;;
45620;SDS011;31345;51.522;10.702;2024-02-28T07:42:11;44.20;;;21.67;;
45620;SDS011;31345;51.522;10.702;2024-02-28T07:44:45;43.83;;;22.20;;
45620;SDS011;31345;51.522;10.702;2024-02-28T07:47:18;42.20;;;20.63;;
45620;SDS011;31345;51.522;10.702;2024-02-28T07:49:45;44.73;;;20.57;;
45620;SDS011;31345;51.522;10.702;2024-02-28T07:52:18;44.87;;;21.70;;
45620;SDS011;31345;51.522;10.702;2024-02-28T07:54:46;41.60;;;20.90;;
45620;SDS011;31345;51.522;10.702;2024-02-28T07:57:14;41.13;;;21.63;;
45620;SDS011;31345;51.522;10.702;2024-02-28T07:59:48;39.37;;;20.80;;
45620;SDS011;31345;51.522;10.702;2024-02-28T08:02:21;41.20;;;20.43;;
45620;SDS011;31345;51.522;10.702;2024-02-28T08:04:53;39.30;;;20.83;;
45620;SDS011;31345;51.522;10.702;2024-02-28T08:07:21;41.93;;;21.37;;
45620;SDS011;31345;51.522;10.702;2024-02-28T08:09:49;42.17;;;20.50;;
45620;SDS011;31345;51.522;10.702;2024-02-28T08:12:21;46.07;;;22.60;;
45620;SDS011;31345;51.522;10.702;2024-02-28T08:14:55;43.30;;;20.80;;
45620;SDS011;31345;51.522;10.702;2024-02-28T08:17:28;44.43;;;22.57;;
45620;SDS011;31345;51.522;10.702;2024-02-28T08:19:56;40.67;;;21.03;;
45620;SDS011;31345;51.522;10.702;2024-02-28T08:22:23;42.20;;;20.33;;
45620;SDS011;31345;51.522;10.702;2024-02-28T08:24:56;45.17;;;22.30;;
45620;SDS011;31345;51.522;10.702;2024-02-28T08:27:29;46.63;;;22.73;;
45620;SDS011;31345;51.522;10.702;2024-02-28T08:30:04;43.63;;;21.40;;
45620;SDS011;31345;51.522;10.702;2024-02-28T08:32:33;47.90;;;24.10;;
45620;SDS011;31345;51.522;10.702;2024-02-28T08:35:07;45.27;;;22.63;;
45620;SDS011;31345;51.522;10.702;2024-02-28T08:37:41;46.60;;;23.43;;
45620;SDS011;31345;51.522;10.702;2024-02-28T08:40:09;47.33;;;22.97;;
45620;SDS011;31345;51.522;10.702;2024-02-28T08:42:42;44.67;;;22.20;;
45620;SDS011;31345;51.522;10.702;2024-02-28T08:45:11;43.07;;;21.80;;
45620;SDS011;31345;51.522;10.702;2024-02-28T08:47:43;45.83;;;22.60;;
45620;SDS011;31345;51.522;10.702;2024-02-28T08:50:11;45.00;;;22.37;;
45620;SDS011;31345;51.522;10.702;2024-02-28T08:52:39;41.73;;;21.17;;
45620;SDS011;31345;51.522;10.702;2024-02-28T08:55:12;47.50;;;24.17;;
45620;SDS011;31345;51.522;10.702;2024-02-28T08:57:39;45.93;;;22.13;;
45620;SDS011;31345;51.522;10.702;2024-02-28T09:00:07;47.97;;;22.13;;
45620;SDS011;31345;51.522;10.702;2024-02-28T09:02:37;43.47;;;22.40;;
45620;SDS011;31345;51.522;10.702;2024-02-28T09:05:05;48.27;;;23.73;;
45620;SDS011;31345;51.522;10.702;2024-02-28T09:07:35;49.93;;;24.27;;
45620;SDS011;31345;51.522;10.702;2024-02-28T09:10:07;48.77;;;22.77;;
45620;SDS011;31345;51.522;10.702;2024-02-28T09:12:37;46.30;;;22.37;;
45620;SDS011;31345;51.522;10.702;2024-02-28T09:15:04;46.53;;;21.67;;
45620;SDS011;31345;51.522;10.702;2024-02-28T09:17:39;41.83;;;21.07;;
45620;SDS011;31345;51.522;10.702;2024-02-28T09:20:12;44.57;;;21.00;;
45620;SDS011;31345;51.522;10.702;2024-02-28T09:22:39;39.67;;;19.43;;
45620;SDS011;31345;51.522;10.702;2024-02-28T09:25:12;36.33;;;19.67;;
45620;SDS011;31345;51.522;10.702;2024-02-28T09:27:41;35.77;;;18.03;;
45620;SDS011;31345;51.522;10.702;2024-02-28T09:30:09;36.17;;;18.37;;
45620;SDS011;31345;51.522;10.702;2024-02-28T09:32:44;37.13;;;18.73;;
45620;SDS011;31345;51.522;10.702;2024-02-28T09:35:13;32.75;;;17.98;;
45620;SDS011;31345;51.522;10.702;2024-02-28T09:37:46;35.53;;;16.97;;
45620;SDS011;31345;51.522;10.702;2024-02-28T09:40:18;36.60;;;17.90;;
45620;SDS011;31345;51.522;10.702;2024-02-28T09:42:51;33.77;;;17.47;;
45620;SDS011;31345;51.522;10.702;2024-02-28T09:45:20;34.90;;;17.60;;
45620;SDS011;31345;51.522;10.702;2024-02-28T09:47:56;32.77;;;16.87;;
45620;SDS011;31345;51.522;10.702;2024-02-28T09:50:25;36.38;;;17.92;;
45620;SDS011;31345;51.522;10.702;2024-02-28T09:52:54;34.43;;;17.50;;
45620;SDS011;31345;51.522;10.702;2024-02-28T09:55:21;30.00;;;17.07;;
45620;SDS011;31345;51.522;10.702;2024-02-28T09:57:54;36.87;;;16.30;;
45620;SDS011;31345;51.522;10.702;2024-02-28T10:00:27;35.40;;;18.17;;
45620;SDS011;31345;51.522;10.702;2024-02-28T10:02:57;32.70;;;18.40;;
45620;SDS011;31345;51.522;10.702;2024-02-28T10:05:27;33.47;;;17.60;;
45620;SDS011;31345;51.522;10.702;2024-02-28T10:07:59;31.83;;;17.20;;
45620;SDS011;31345;51.522;10.702;2024-02-28T10:10:28;33.27;;;17.00;;
45620;SDS011;31345;51.522;10.702;2024-02-28T10:13:00;33.33;;;17.40;;
45620;SDS011;31345;51.522;10.702;2024-02-28T10:15:28;33.00;;;17.47;;
45620;SDS011;31345;51.522;10.702;2024-02-28T10:17:57;30.90;;;17.80;;
45620;SDS011;31345;51.522;10.702;2024-02-28T10:20:30;33.73;;;17.97;;
45620;SDS011;31345;51.522;10.702;2024-02-28T10:23:03;32.53;;;16.93;;
45620;SDS011;31345;51.522;10.702;2024-02-28T10:25:43;38.20;;;20.20;;
45620;SDS011;31345;51.522;10.702;2024-02-28T10:28:16;32.37;;;18.10;;
45620;SDS011;31345;51.522;10.702;2024-02-28T10:30:49;30.30;;;16.37;;
45620;SDS011;31345;51.522;10.702;2024-02-28T10:33:26;33.87;;;16.47;;
45620;SDS011;31345;51.522;10.702;2024-02-28T10:36:00;30.73;;;17.03;;
45620;SDS011;31345;51.522;10.702;2024-02-28T10:38:34;41.17;;;18.43;;
45620;SDS011;31345;51.522;10.702;2024-02-28T10:41:03;30.67;;;16.93;;
45620;SDS011;31345;51.522;10.702;2024-02-28T10:43:31;33.77;;;17.30;;
45620;SDS011;31345;51.522;10.702;2024-02-28T10:46:05;32.73;;;16.67;;
45620;SDS011;31345;51.522;10.702;2024-02-28T10:48:41;33.23;;;18.20;;
45620;SDS011;31345;51.522;10.702;2024-02-28T10:51:09;31.73;;;17.13;;
45620;SDS011;31345;51.522;10.702;2024-02-28T10:53:42;30.33;;;16.63;;
45620;SDS011;31345;51.522;10.702;2024-02-28T10:56:16;34.57;;;16.97;;
45620;SDS011;31345;51.522;10.702;2024-02-28T10:58:47;33.20;;;18.57;;
45620;SDS011;31345;51.522;10.702;2024-02-28T11:01:23;33.93;;;18.00;;
45620;SDS011;31345;51.522;10.702;2024-02-28T11:03:53;34.10;;;17.77;;
45620;SDS011;31345;51.522;10.702;2024-02-28T11:06:21;30.77;;;17.33;;
45620;SDS011;31345;51.522;10.702;2024-02-28T11:08:51;31.43;;;17.20;;
45620;SDS011;31345;51.522;10.702;2024-02-28T11:11:20;31.50;;;18.25;;
45620;SDS011;31345;51.522;10.702;2024-02-28T11:13:51;29.60;;;16.53;;
45620;SDS011;31345;51.522;10.702;2024-02-28T11:16:28;30.63;;;17.60;;
45620;SDS011;31345;51.522;10.702;2024-02-28T11:18:58;31.10;;;17.63;;
45620;SDS011;31345;51.522;10.702;2024-02-28T11:21:34;33.13;;;18.33;;
45620;SDS011;31345;51.522;10.702;2024-02-28T11:24:02;32.03;;;19.17;;
45620;SDS011;31345;51.522;10.702;2024-02-28T11:26:31;36.07;;;19.87;;
45620;SDS011;31345;51.522;10.702;2024-02-28T11:29:03;37.17;;;19.80;;
45620;SDS011;31345;51.522;10.702;2024-02-28T11:31:36;38.97;;;20.07;;
45620;SDS011;31345;51.522;10.702;2024-02-28T11:34:10;36.83;;;20.00;;
45620;SDS011;31345;51.522;10.702;2024-02-28T11:36:42;39.90;;;19.00;;
45620;SDS011;31345;51.522;10.702;2024-02-28T11:39:15;32.50;;;18.97;;
45620;SDS011;31345;51.522;10.702;2024-02-28T11:41:43;49.40;;;25.60;;
45620;SDS011;31345;51.522;10.702;2024-02-28T11:44:12;34.73;;;19.20;;
45620;SDS011;31345;51.522;10.702;2024-02-28T11:46:45;35.40;;;18.47;;
45620;SDS011;31345;51.522;10.702;2024-02-28T11:49:20;34.33;;;19.10;;
45620;SDS011;31345;51.522;10.702;2024-02-28T11:51:48;35.63;;;19.10;;
45620;SDS011;31345;51.522;10.702;2024-02-28T11:54:21;35.30;;;19.67;;
45620;SDS011;31345;51.522;10.702;2024-02-28T11:56:53;34.80;;;18.33;;
45620;SDS011;31345;51.522;10.702;2024-02-28T11:59:21;31.53;;;18.03;;
45620;SDS011;31345;51.522;10.702;2024-02-28T12:01:48;35.47;;;18.27;;
45620;SDS011;31345;51.522;10.702;2024-02-28T12:04:24;34.27;;;18.97;;
45620;SDS011;31345;51.522;10.702;2024-02-28T12:06:52;37.57;;;18.83;;
45620;SDS011;31345;51.522;10.702;2024-02-28T12:09:25;31.77;;;17.10;;
45620;SDS011;31345;51.522;10.702;2024-02-28T12:12:00;32.07;;;18.43;;
45620;SDS011;31345;51.522;10.702;2024-02-28T12:14:36;36.13;;;18.17;;
45620;SDS011;31345;51.522;10.702;2024-02-28T12:17:10;32.50;;;17.03;;
45620;SDS011;31345;51.522;10.702;2024-02-28T12:19:39;31.57;;;17.83;;
45620;SDS011;31345;51.522;10.702;2024-02-28T12:22:13;36.77;;;17.93;;
45620;SDS011;31345;51.522;10.702;2024-02-28T12:24:46;33.67;;;18.13;;
45620;SDS011;31345;51.522;10.702;2024-02-28T12:27:14;36.63;;;17.80;;
45620;SDS011;31345;51.522;10.702;2024-02-28T12:29:47;33.73;;;17.80;;
45620;SDS011;31345;51.522;10.702;2024-02-28T12:32:19;34.17;;;17.00;;
45620;SDS011;31345;51.522;10.702;2024-02-28T12:34:49;29.03;;;17.00;;
45620;SDS011;31345;51.522;10.702;2024-02-28T12:37:16;31.73;;;17.37;;
45620;SDS011;31345;51.522;10.702;2024-02-28T12:39:49;30.33;;;17.17;;
45620;SDS011;31345;51.522;10.702;2024-02-28T12:42:23;31.23;;;16.80;;
45620;SDS011;31345;51.522;10.702;2024-02-28T12:44:56;30.77;;;17.50;;
45620;SDS011;31345;51.522;10.702;2024-02-28T12:47:23;30.40;;;15.93;;
45620;SDS011;31345;51.522;10.702;2024-02-28T12:49:52;33.87;;;18.53;;
45620;SDS011;31345;51.522;10.702;2024-02-28T12:52:25;31.80;;;17.07;;
45620;SDS011;31345;51.522;10.702;2024-02-28T12:54:53;49.03;;;27.93;;
45620;SDS011;31345;51.522;10.702;2024-02-28T12:57:25;33.93;;;18.70;;
45620;SDS011;31345;51.522;10.702;2024-02-28T12:59:58;30.57;;;17.03;;
45620;SDS011;31345;51.522;10.702;2024-02-28T13:02:31;32.33;;;17.47;;
45620;SDS011;31345;51.522;10.702;2024-02-28T13:05:05;34.57;;;18.87;;
45620;SDS011;31345;51.522;10.702;2024-02-28T13:07:38;37.25;;;22.02;;
45620;SDS011;31345;51.522;10.702;2024-02-28T13:10:11;34.03;;;17.90;;
45620;SDS011;31345;51.522;10.702;2024-02-28T13:12:44;31.65;;;17.63;;
45620;SDS011;31345;51.522;10.702;2024-02-28T13:15:11;33.88;;;18.52;;
45620;SDS011;31345;51.522;10.702;2024-02-28T13:17:39;30.07;;;16.97;;
45620;SDS011;31345;51.522;10.702;2024-02-28T13:20:13;28.50;;;16.57;;
45620;SDS011;31345;51.522;10.702;2024-02-28T13:22:41;31.67;;;16.95;;
45620;SDS011;31345;51.522;10.702;2024-02-28T13:25:14;31.20;;;17.40;;
45620;SDS011;31345;51.522;10.702;2024-02-28T13:27:49;29.63;;;16.65;;
45620;SDS011;31345;51.522;10.702;2024-02-28T13:30:21;29.95;;;17.30;;
45620;SDS011;31345;51.522;10.702;2024-02-28T13:32:49;28.75;;;15.80;;
45620;SDS011;31345;51.522;10.702;2024-02-28T13:35:23;27.65;;;16.17;;
45620;SDS011;31345;51.522;10.702;2024-02-28T13:37:56;28.92;;;15.32;;
45620;SDS011;31345;51.522;10.702;2024-02-28T13:40:31;27.63;;;15.65;;
45620;SDS011;31345;51.522;10.702;2024-02-28T13:42:58;29.88;;;17.35;;
45620;SDS011;31345;51.522;10.702;2024-02-28T13:45:26;27.33;;;15.73;;
45620;SDS011;31345;51.522;10.702;2024-02-28T13:47:54;28.25;;;16.55;;
45620;SDS011;31345;51.522;10.702;2024-02-28T13:50:28;26.02;;;15.95;;
45620;SDS011;31345;51.522;10.702;2024-02-28T13:53:03;26.75;;;14.80;;
45620;SDS011;31345;51.522;10.702;2024-02-28T13:55:31;28.00;;;16.60;;
45620;SDS011;31345;51.522;10.702;2024-02-28T13:57:58;26.92;;;15.77;;
45620;SDS011;31345;51.522;10.702;2024-02-28T14:00:31;28.52;;;16.60;;
45620;SDS011;31345;51.522;10.702;2024-02-28T14:03:01;30.48;;;16.15;;
45620;SDS011;31345;51.522;10.702;2024-02-28T14:05:37;25.85;;;15.50;;
45620;SDS011;31345;51.522;10.702;2024-02-28T14:08:05;24.25;;;14.73;;
45620;SDS011;31345;51.522;10.702;2024-02-28T14:10:34;27.38;;;14.90;;
45620;SDS011;31345;51.522;10.702;2024-02-28T14:13:08;26.52;;;15.77;;
45620;SDS011;31345;51.522;10.702;2024-02-28T14:15:37;26.73;;;15.00;;
45620;SDS011;31345;51.522;10.702;2024-02-28T14:18:10;25.95;;;15.00;;
45620;SDS011;31345;51.522;10.702;2024-02-28T14:20:39;25.45;;;14.18;;
45620;SDS011;31345;51.522;10.702;2024-02-28T14:23:13;23.50;;;14.05;;
45620;SDS011;31345;51.522;10.702;2024-02-28T14:25:41;22.55;;;13.05;;
45620;SDS011;31345;51.522;10.702;2024-02-28T14:28:09;24.13;;;14.27;;